createdAt,value
2022-10-02T00:00:25.456Z,13.90
2022-10-02T00:01:24.853Z,23.20
2022-10-02T00:02:24.525Z,15.40
2022-10-02T00:03:25.157Z,17.50
2022-10-02T00:04:24.461Z,15.10
2022-10-02T00:05:24.394Z,15.10
2022-10-02T00:06:24.378Z,14.40
2022-10-02T00:07:24.373Z,12.70
2022-10-02T00:08:25.185Z,16.60
2022-10-02T00:09:24.406Z,12.90
2022-10-02T00:10:24.592Z,16.60
2022-10-02T00:11:24.598Z,15.80
2022-10-02T00:12:24.605Z,13.70
2022-10-02T00:13:24.616Z,16.80
2022-10-02T00:14:24.823Z,12.20
2022-10-02T00:15:24.841Z,20.00
2022-10-02T00:16:24.775Z,16.20
2022-10-02T00:17:24.853Z,13.30
2022-10-02T00:18:24.852Z,15.20
2022-10-02T00:19:24.302Z,15.50
2022-10-02T00:20:24.662Z,15.90
2022-10-02T00:21:24.882Z,15.30
2022-10-02T00:22:24.394Z,15.70
2022-10-02T00:23:25.202Z,17.80
2022-10-02T00:24:24.293Z,16.10
2022-10-02T00:25:24.492Z,20.90
2022-10-02T00:26:25.334Z,18.50
2022-10-02T00:27:24.313Z,17.30
2022-10-02T00:28:24.297Z,13.70
2022-10-02T00:29:24.247Z,17.40
2022-10-02T00:30:24.329Z,16.30
2022-10-02T00:31:24.387Z,15.60
2022-10-02T00:32:24.440Z,20.30
2022-10-02T00:33:24.550Z,14.90
2022-10-02T00:34:24.354Z,12.70
2022-10-02T00:35:24.181Z,17.10
2022-10-02T00:36:24.360Z,22.30
2022-10-02T00:37:25.749Z,21.50
2022-10-02T00:38:24.689Z,14.90
2022-10-02T00:39:24.408Z,16.70
2022-10-02T00:40:24.809Z,15.40
2022-10-02T00:41:24.399Z,16.00
2022-10-02T00:42:24.202Z,18.50
2022-10-02T00:43:24.209Z,15.90
2022-10-02T00:44:24.218Z,14.90
2022-10-02T00:45:24.120Z,13.60
2022-10-02T00:46:24.228Z,18.50
2022-10-02T00:47:24.236Z,18.90
2022-10-02T00:48:24.146Z,16.00
2022-10-02T00:49:24.101Z,17.20
2022-10-02T00:50:24.468Z,18.80
2022-10-02T00:51:24.477Z,16.80
2022-10-02T00:52:24.478Z,18.20
2022-10-02T00:53:24.689Z,18.90
2022-10-02T00:54:24.697Z,19.80
2022-10-02T00:55:24.297Z,23.30
2022-10-02T00:56:24.509Z,24.50
2022-10-02T00:57:24.719Z,21.00
2022-10-02T00:58:24.725Z,18.70
2022-10-02T00:59:24.345Z,20.90
2022-10-02T01:00:24.126Z,18.20
2022-10-02T01:01:24.383Z,16.60
2022-10-02T01:02:24.530Z,18.00
2022-10-02T01:03:24.965Z,20.30
2022-10-02T01:04:24.153Z,21.70
2022-10-02T01:05:24.365Z,22.90
2022-10-02T01:06:23.974Z,24.20
2022-10-02T01:07:24.301Z,20.90
2022-10-02T01:08:24.802Z,23.40
2022-10-02T01:09:23.982Z,18.20
2022-10-02T01:10:23.994Z,19.50
2022-10-02T01:11:24.196Z,22.80
2022-10-02T01:12:24.305Z,22.60
2022-10-02T01:13:24.833Z,18.50
2022-10-02T01:14:24.024Z,18.80
2022-10-02T01:15:24.224Z,23.40
2022-10-02T01:16:24.838Z,18.80
2022-10-02T01:17:24.046Z,21.10
2022-10-02T01:18:24.453Z,19.50
2022-10-02T01:19:24.273Z,21.90
2022-10-02T01:20:23.882Z,21.20
2022-10-02T01:21:23.882Z,21.80
2022-10-02T01:22:23.862Z,19.20
2022-10-02T01:23:23.983Z,23.00
2022-10-02T01:24:24.091Z,22.80
2022-10-02T01:25:24.102Z,21.80
2022-10-02T01:26:23.911Z,20.60
2022-10-02T01:27:23.912Z,21.80
2022-10-02T01:28:23.941Z,19.70
2022-10-02T01:29:24.139Z,21.50
2022-10-02T01:30:24.142Z,22.00
2022-10-02T01:31:24.205Z,22.20
2022-10-02T01:32:24.159Z,20.60
2022-10-02T01:33:23.880Z,23.30
2022-10-02T01:34:23.952Z,24.30
2022-10-02T01:35:23.793Z,20.20
2022-10-02T01:36:23.769Z,21.00
2022-10-02T01:37:23.774Z,22.70
2022-10-02T01:38:23.779Z,19.00
2022-10-02T01:39:23.997Z,23.30
2022-10-02T01:40:23.999Z,22.30
2022-10-02T01:41:24.009Z,25.20
2022-10-02T01:42:24.018Z,28.80
2022-10-02T01:43:24.019Z,21.70
2022-10-02T01:44:24.034Z,22.90
2022-10-02T01:45:24.071Z,24.00
2022-10-02T01:46:24.039Z,21.30
2022-10-02T01:47:24.039Z,22.90
2022-10-02T01:48:24.057Z,29.40
2022-10-02T01:49:23.679Z,23.30
2022-10-02T01:50:23.860Z,24.00
2022-10-02T01:51:24.078Z,25.40
2022-10-02T01:52:24.087Z,26.50
2022-10-02T01:53:24.098Z,22.90
2022-10-02T01:54:24.097Z,26.90
2022-10-02T01:55:23.687Z,25.30
2022-10-02T01:56:23.706Z,21.30
2022-10-02T01:57:23.707Z,21.90
2022-10-02T01:58:23.716Z,22.90
2022-10-02T01:59:23.717Z,22.00
2022-10-02T02:00:23.728Z,23.40
2022-10-02T02:01:23.999Z,28.20
2022-10-02T02:02:23.690Z,21.00
2022-10-02T02:03:23.697Z,24.30
2022-10-02T02:04:23.757Z,24.70
2022-10-02T02:05:23.965Z,28.70
2022-10-02T02:06:23.975Z,22.40
2022-10-02T02:07:23.985Z,21.80
2022-10-02T02:08:24.205Z,26.00
2022-10-02T02:09:23.585Z,27.90
2022-10-02T02:10:24.005Z,25.00
2022-10-02T02:11:24.006Z,25.40
2022-10-02T02:12:23.815Z,27.50
2022-10-02T02:13:23.845Z,24.90
2022-10-02T02:14:23.535Z,24.80
2022-10-02T02:15:24.036Z,26.50
2022-10-02T02:16:23.905Z,27.00
2022-10-02T02:17:24.044Z,28.10
2022-10-02T02:18:23.492Z,24.60
2022-10-02T02:19:24.313Z,25.00
2022-10-02T02:20:23.481Z,27.70
2022-10-02T02:21:23.484Z,28.90
2022-10-02T02:22:23.485Z,25.30
2022-10-02T02:23:23.500Z,27.60
2022-10-02T02:24:23.530Z,27.50
2022-10-02T02:25:23.502Z,25.60
2022-10-02T02:26:23.713Z,33.10
2022-10-02T02:27:23.723Z,26.20
2022-10-02T02:28:23.766Z,31.70
2022-10-02T02:29:23.734Z,29.10
2022-10-02T02:30:23.745Z,25.30
2022-10-02T02:31:23.800Z,29.70
2022-10-02T02:32:23.974Z,25.50
2022-10-02T02:33:23.373Z,27.50
2022-10-02T02:34:23.382Z,34.70
2022-10-02T02:35:23.365Z,26.10
2022-10-02T02:36:23.572Z,28.90
2022-10-02T02:37:23.581Z,26.90
2022-10-02T02:38:23.582Z,24.60
2022-10-02T02:39:23.591Z,35.30
2022-10-02T02:40:23.601Z,30.90
2022-10-02T02:41:23.600Z,28.00
2022-10-02T02:42:26.041Z,26.60
2022-10-02T02:43:23.661Z,27.10
2022-10-02T02:44:23.831Z,27.00
2022-10-02T02:45:23.792Z,26.10
2022-10-02T02:46:23.841Z,21.60
2022-10-02T02:47:23.684Z,26.90
2022-10-02T02:48:23.272Z,23.90
2022-10-02T02:49:23.279Z,24.90
2022-10-02T02:50:23.269Z,29.30
2022-10-02T02:51:23.259Z,26.70
2022-10-02T02:52:23.287Z,29.90
2022-10-02T02:53:23.310Z,28.90
2022-10-02T02:54:23.290Z,29.00
2022-10-02T02:55:23.295Z,32.70
2022-10-02T02:56:23.299Z,27.40
2022-10-02T02:57:23.307Z,29.50
2022-10-02T02:58:23.529Z,27.80
2022-10-02T02:59:23.528Z,30.50
2022-10-02T03:00:23.548Z,28.90
2022-10-02T03:01:23.379Z,25.80
2022-10-02T03:02:23.222Z,29.60
2022-10-02T03:03:23.168Z,29.60
2022-10-02T03:04:23.187Z,26.20
2022-10-02T03:05:23.579Z,31.90
2022-10-02T03:06:23.579Z,29.70
2022-10-02T03:07:23.178Z,34.10
2022-10-02T03:08:23.177Z,27.70
2022-10-02T03:09:23.188Z,35.20
2022-10-02T03:10:23.197Z,28.80
2022-10-02T03:11:23.116Z,27.10
2022-10-02T03:12:23.115Z,29.30
2022-10-02T03:13:23.126Z,32.90
2022-10-02T03:14:23.117Z,27.90
2022-10-02T03:15:23.127Z,27.40
2022-10-02T03:16:23.179Z,30.10
2022-10-02T03:17:23.075Z,31.30
2022-10-02T03:18:23.064Z,32.20
2022-10-02T03:19:23.076Z,32.60
2022-10-02T03:20:23.123Z,30.20
2022-10-02T03:21:23.059Z,30.80
2022-10-02T03:22:23.094Z,30.60
2022-10-02T03:23:23.038Z,27.00
2022-10-02T03:24:23.023Z,29.60
2022-10-02T03:25:23.050Z,28.10
2022-10-02T03:26:23.013Z,29.10
2022-10-02T03:27:23.003Z,31.80
2022-10-02T03:28:43.355Z,30.70
2022-10-02T03:29:23.014Z,28.30
2022-10-02T03:30:23.124Z,25.00
2022-10-02T03:31:22.987Z,30.30
2022-10-02T03:32:22.966Z,28.70
2022-10-02T03:33:23.252Z,28.70
2022-10-02T03:34:22.962Z,30.90
2022-10-02T03:35:22.954Z,28.50
2022-10-02T03:36:22.945Z,28.40
2022-10-02T03:37:23.282Z,28.20
2022-10-02T03:38:23.281Z,32.40
2022-10-02T03:39:25.750Z,26.10
2022-10-02T03:40:23.014Z,30.00
2022-10-02T03:41:23.101Z,30.20
2022-10-02T03:42:23.312Z,28.10
2022-10-02T03:43:23.320Z,30.90
2022-10-02T03:44:22.990Z,31.70
2022-10-02T03:45:39.316Z,30.40
2022-10-02T03:46:23.126Z,26.90
2022-10-02T03:47:22.880Z,30.30
2022-10-02T03:48:22.870Z,28.90
2022-10-02T03:49:23.468Z,33.40
2022-10-02T03:50:22.890Z,33.90
2022-10-02T03:51:22.874Z,30.70
2022-10-02T03:52:22.971Z,23.90
2022-10-02T03:53:22.987Z,29.10
2022-10-02T03:54:22.989Z,28.30
2022-10-02T03:55:23.011Z,27.90
2022-10-02T03:56:23.107Z,24.00
2022-10-02T03:57:23.221Z,27.30
2022-10-02T03:58:22.817Z,30.10
2022-10-02T03:59:23.230Z,33.70
2022-10-02T04:00:23.138Z,30.80
2022-10-02T04:01:23.371Z,31.70
2022-10-02T04:02:23.457Z,30.90
2022-10-02T04:04:48.734Z,30.00
2022-10-02T04:05:48.905Z,31.90
2022-10-02T04:06:48.708Z,28.30
2022-10-02T04:07:52.614Z,33.60
2022-10-02T04:08:48.693Z,33.90
2022-10-02T04:09:48.699Z,28.30
2022-10-02T04:10:48.678Z,29.10
2022-10-02T04:11:48.662Z,33.00
2022-10-02T04:12:48.659Z,27.30
2022-10-02T04:13:48.719Z,31.20
2022-10-02T04:14:48.669Z,28.90
2022-10-02T04:15:48.647Z,33.00
2022-10-02T04:16:48.628Z,29.80
2022-10-02T04:17:48.619Z,33.80
2022-10-02T04:18:48.621Z,31.70
2022-10-02T04:19:48.618Z,29.40
2022-10-02T04:20:48.618Z,29.60
2022-10-02T04:21:48.596Z,27.50
2022-10-02T04:22:48.595Z,29.60
2022-10-02T04:23:48.846Z,28.30
2022-10-02T04:24:48.638Z,31.50
2022-10-02T04:25:48.868Z,30.00
2022-10-02T04:26:48.874Z,31.10
2022-10-02T04:27:48.671Z,25.90
2022-10-02T04:28:48.619Z,29.30
2022-10-02T04:29:48.569Z,26.50
2022-10-02T04:30:48.545Z,31.20
2022-10-02T04:31:48.864Z,24.50
2022-10-02T04:32:48.527Z,31.70
2022-10-02T04:33:48.515Z,26.30
2022-10-02T04:34:48.535Z,31.90
2022-10-02T04:35:48.866Z,33.30
2022-10-02T04:36:48.526Z,27.40
2022-10-02T04:37:48.936Z,35.90
2022-10-02T04:38:48.945Z,29.70
2022-10-02T04:39:48.534Z,30.40
2022-10-02T04:40:49.124Z,33.50
2022-10-02T04:41:48.463Z,32.10
2022-10-02T04:42:49.124Z,32.90
2022-10-02T04:43:48.514Z,32.40
2022-10-02T04:44:48.935Z,28.40
2022-10-02T04:45:49.194Z,30.60
2022-10-02T04:46:49.114Z,33.20
2022-10-02T04:47:49.165Z,29.40
2022-10-02T04:48:48.553Z,29.30
2022-10-02T04:49:48.973Z,31.60
2022-10-02T04:50:49.183Z,27.00
2022-10-02T04:51:49.195Z,28.40
2022-10-02T04:52:48.583Z,29.40
2022-10-02T04:53:48.392Z,29.90
2022-10-02T04:54:48.436Z,29.50
2022-10-02T04:55:48.405Z,26.30
2022-10-02T04:56:48.402Z,30.10
2022-10-02T04:57:48.413Z,34.50
2022-10-02T04:58:48.412Z,25.50
2022-10-02T04:59:48.633Z,25.60
2022-10-02T05:00:48.861Z,28.70
2022-10-02T05:01:48.686Z,24.50
2022-10-02T05:02:48.661Z,29.70
2022-10-02T05:03:48.724Z,30.50
2022-10-02T05:04:48.390Z,32.30
2022-10-02T05:05:48.322Z,26.70
2022-10-02T05:06:48.311Z,29.80
2022-10-02T05:07:48.593Z,30.80
2022-10-02T05:08:48.481Z,30.70
2022-10-02T05:09:48.491Z,27.10
2022-10-02T05:10:48.330Z,30.20
2022-10-02T05:11:48.550Z,32.20
2022-10-02T05:12:48.818Z,27.50
2022-10-02T05:13:48.728Z,30.10
2022-10-02T05:14:48.730Z,34.20
2022-10-02T05:15:48.556Z,27.90
2022-10-02T05:16:48.770Z,30.80
2022-10-02T05:17:48.963Z,33.00
2022-10-02T05:18:48.961Z,30.60
2022-10-02T05:19:48.208Z,35.00
2022-10-02T05:20:48.399Z,28.10
2022-10-02T05:21:48.207Z,31.10
2022-10-02T05:22:49.087Z,26.50
2022-10-02T05:23:48.992Z,26.40
2022-10-02T05:24:48.389Z,31.50
2022-10-02T05:25:48.238Z,28.40
2022-10-02T05:26:49.218Z,30.00
2022-10-02T05:27:48.849Z,30.10
2022-10-02T05:28:48.177Z,30.60
2022-10-02T05:29:49.028Z,27.40
2022-10-02T05:30:48.217Z,37.10
2022-10-02T05:31:48.273Z,34.20
2022-10-02T05:32:48.138Z,25.20
2022-10-02T05:33:48.675Z,31.20
2022-10-02T05:34:48.897Z,30.60
2022-10-02T05:35:49.076Z,26.40
2022-10-02T05:36:48.256Z,26.90
2022-10-02T05:37:48.106Z,29.40
2022-10-02T05:38:48.698Z,30.70
2022-10-02T05:39:48.725Z,28.70
2022-10-02T05:40:48.886Z,26.90
2022-10-02T05:41:48.536Z,28.00
2022-10-02T05:42:48.105Z,35.80
2022-10-02T05:43:48.116Z,30.80
2022-10-02T05:44:48.115Z,31.50
2022-10-02T05:45:48.157Z,28.60
2022-10-02T05:46:48.375Z,28.80
2022-10-02T05:47:48.145Z,25.80
2022-10-02T05:48:48.030Z,26.90
2022-10-02T05:49:48.354Z,27.30
2022-10-02T05:50:47.995Z,26.60
2022-10-02T05:51:47.986Z,24.70
2022-10-02T05:52:47.994Z,29.30
2022-10-02T05:53:47.992Z,29.50
2022-10-02T05:54:48.014Z,28.50
2022-10-02T05:55:47.983Z,30.60
2022-10-02T05:56:48.287Z,28.20
2022-10-02T05:57:47.964Z,28.00
2022-10-02T05:58:48.224Z,27.50
2022-10-02T05:59:48.013Z,26.40
2022-10-02T06:00:48.273Z,33.00
2022-10-02T06:01:48.283Z,32.00
2022-10-02T06:02:47.914Z,29.10
2022-10-02T06:03:47.953Z,28.60
2022-10-02T06:04:47.924Z,29.40
2022-10-02T06:05:47.933Z,25.20
2022-10-02T06:06:48.018Z,33.60
2022-10-02T06:07:48.061Z,25.00
2022-10-02T06:08:48.102Z,29.60
2022-10-02T06:09:47.971Z,25.90
2022-10-02T06:10:47.922Z,30.10
2022-10-02T06:11:47.953Z,30.80
2022-10-02T06:12:47.970Z,25.50
2022-10-02T06:13:47.860Z,28.10
2022-10-02T06:14:50.651Z,29.40
2022-10-02T06:15:48.143Z,23.70
2022-10-02T06:16:48.185Z,22.60
2022-10-02T06:17:48.142Z,24.30
2022-10-02T06:18:47.850Z,25.40
2022-10-02T06:19:47.933Z,24.00
2022-10-02T06:20:47.849Z,22.90
2022-10-02T06:21:47.973Z,24.80
2022-10-02T06:22:47.796Z,25.40
2022-10-02T06:23:47.971Z,23.20
2022-10-02T06:24:47.980Z,19.90
2022-10-02T06:25:47.841Z,24.10
2022-10-02T06:26:47.784Z,23.80
2022-10-02T06:27:48.179Z,21.20
2022-10-02T06:28:48.239Z,21.50
2022-10-02T06:29:47.819Z,24.40
2022-10-02T06:30:48.422Z,19.30
2022-10-02T06:31:48.593Z,21.90
2022-10-02T06:32:47.827Z,18.40
2022-10-02T06:33:48.468Z,19.60
2022-10-02T06:34:48.498Z,21.20
2022-10-02T06:35:48.249Z,18.30
2022-10-02T06:36:47.679Z,21.00
2022-10-02T06:37:47.678Z,18.90
2022-10-02T06:38:47.677Z,16.20
2022-10-02T06:39:47.679Z,20.80
2022-10-02T06:40:49.127Z,19.40
2022-10-02T06:41:47.679Z,18.60
2022-10-02T06:42:47.697Z,17.10
2022-10-02T06:43:47.697Z,23.90
2022-10-02T06:44:47.766Z,15.60
2022-10-02T06:45:47.828Z,15.60
2022-10-02T06:46:51.276Z,16.70
2022-10-02T06:47:47.628Z,19.60
2022-10-02T06:48:47.717Z,15.50
2022-10-02T06:49:47.585Z,19.40
2022-10-02T06:50:47.939Z,18.50
2022-10-02T06:51:47.578Z,17.90
2022-10-02T06:52:47.816Z,15.10
2022-10-02T06:53:47.577Z,17.30
2022-10-02T06:54:47.595Z,14.40
2022-10-02T06:55:47.626Z,14.40
2022-10-02T06:56:47.596Z,15.00
2022-10-02T06:57:47.576Z,18.40
2022-10-02T06:58:47.596Z,13.90
2022-10-02T06:59:47.514Z,15.70
2022-10-02T07:00:47.913Z,15.60
2022-10-02T07:01:47.897Z,16.40
2022-10-02T07:02:47.821Z,13.70
2022-10-02T07:03:47.835Z,12.90
2022-10-02T07:04:47.634Z,14.30
2022-10-02T07:05:48.094Z,12.60
2022-10-02T07:06:47.486Z,13.80
2022-10-02T07:07:48.084Z,11.50
2022-10-02T07:08:48.063Z,11.00
2022-10-02T07:09:47.444Z,13.20
2022-10-02T07:10:48.098Z,13.30
2022-10-02T07:11:47.674Z,11.40
2022-10-02T07:12:48.324Z,11.90
2022-10-02T07:13:47.695Z,11.00
2022-10-02T07:14:47.733Z,9.30
2022-10-02T07:15:47.912Z,14.50
2022-10-02T07:16:48.169Z,9.40
2022-10-02T07:17:48.141Z,11.90
2022-10-02T07:18:47.525Z,7.90
2022-10-02T07:19:47.491Z,12.10
2022-10-02T07:20:47.404Z,14.50
2022-10-02T07:21:48.902Z,11.70
2022-10-02T07:22:47.544Z,11.10
2022-10-02T07:23:48.161Z,14.20
2022-10-02T07:24:47.552Z,12.40
2022-10-02T07:25:47.763Z,11.40
2022-10-02T07:26:47.984Z,15.60
2022-10-02T07:27:47.427Z,11.10
2022-10-02T07:28:48.192Z,13.10
2022-10-02T07:29:48.412Z,12.20
2022-10-02T07:30:47.401Z,10.40
2022-10-02T07:31:47.702Z,11.30
2022-10-02T07:32:47.301Z,10.50
2022-10-02T07:33:47.430Z,11.00
2022-10-02T07:34:47.388Z,13.80
2022-10-02T07:35:47.301Z,11.10
2022-10-02T07:36:47.430Z,12.70
2022-10-02T07:37:47.271Z,10.10
2022-10-02T07:38:47.440Z,11.50
2022-10-02T07:39:47.264Z,14.40
2022-10-02T07:40:47.298Z,12.00
2022-10-02T07:41:47.270Z,13.80
2022-10-02T07:42:47.671Z,9.60
2022-10-02T07:43:47.291Z,10.00
2022-10-02T07:44:47.498Z,14.30
2022-10-02T07:45:47.323Z,11.90
2022-10-02T07:46:47.290Z,11.90
2022-10-02T07:47:47.918Z,9.90
2022-10-02T07:48:47.189Z,11.00
2022-10-02T07:49:47.418Z,11.90
2022-10-02T07:50:47.189Z,11.20
2022-10-02T07:51:47.178Z,13.80
2022-10-02T07:52:47.176Z,13.90
2022-10-02T07:53:47.158Z,7.90
2022-10-02T07:54:47.168Z,12.30
2022-10-02T07:55:47.439Z,11.40
2022-10-02T07:56:47.189Z,13.00
2022-10-02T07:57:47.238Z,12.40
2022-10-02T07:58:47.178Z,12.10
2022-10-02T07:59:47.203Z,13.10
2022-10-02T08:00:47.248Z,11.40
2022-10-02T08:01:47.202Z,12.00
2022-10-02T08:02:47.231Z,13.00
2022-10-02T08:03:47.207Z,14.10
2022-10-02T08:04:47.087Z,13.70
2022-10-02T08:05:47.306Z,14.20
2022-10-02T08:06:47.416Z,11.80
2022-10-02T08:07:47.426Z,10.60
2022-10-02T08:08:47.048Z,12.60
2022-10-02T08:09:47.097Z,16.10
2022-10-02T08:10:47.056Z,15.90
2022-10-02T08:11:49.484Z,16.60
2022-10-02T08:12:47.043Z,13.00
2022-10-02T08:13:47.076Z,12.40
2022-10-02T08:14:47.116Z,17.70
2022-10-02T08:15:47.097Z,18.10
2022-10-02T08:16:47.130Z,12.50
2022-10-02T08:17:47.124Z,18.70
2022-10-02T08:18:46.988Z,14.40
2022-10-02T08:19:47.153Z,15.60
2022-10-02T08:20:46.974Z,14.10
2022-10-02T08:21:46.982Z,15.30
2022-10-02T08:22:46.984Z,17.90
2022-10-02T08:23:47.142Z,17.10
2022-10-02T08:24:46.954Z,17.50
2022-10-02T08:25:47.126Z,16.70
2022-10-02T08:26:47.135Z,18.80
2022-10-02T08:27:47.199Z,16.50
2022-10-02T08:28:46.953Z,19.70
2022-10-02T08:29:46.971Z,18.50
2022-10-02T08:30:46.965Z,17.30
2022-10-02T08:31:47.406Z,18.60
2022-10-02T08:32:46.962Z,18.20
2022-10-02T08:33:47.086Z,23.60
2022-10-02T08:34:46.873Z,18.50
2022-10-02T08:35:46.863Z,22.70
2022-10-02T08:36:46.873Z,19.50
2022-10-02T08:37:47.423Z,19.20
2022-10-02T08:38:47.998Z,22.60
2022-10-02T08:39:46.854Z,17.60
2022-10-02T08:40:47.232Z,20.20
2022-10-02T08:41:47.233Z,19.60
2022-10-02T08:42:46.811Z,21.10
2022-10-02T08:43:47.041Z,21.50
2022-10-02T08:44:47.532Z,22.50
2022-10-02T08:45:46.887Z,19.10
2022-10-02T08:46:46.782Z,21.70
2022-10-02T08:47:46.792Z,23.50
2022-10-02T08:48:46.885Z,27.50
2022-10-02T08:49:46.882Z,21.50
2022-10-02T08:50:46.764Z,21.80
2022-10-02T08:51:47.091Z,19.60
2022-10-02T08:52:46.762Z,18.30
2022-10-02T08:53:46.741Z,17.40
2022-10-02T08:54:46.922Z,21.10
2022-10-02T08:55:46.749Z,24.20
2022-10-02T08:56:46.735Z,21.60
2022-10-02T08:57:46.741Z,22.10
2022-10-02T08:58:46.943Z,19.80
2022-10-02T08:59:46.953Z,17.80
2022-10-02T09:00:46.776Z,19.90
2022-10-02T09:01:46.723Z,19.00
2022-10-02T09:02:46.911Z,19.60
2022-10-02T09:03:47.205Z,22.00
2022-10-02T09:04:46.787Z,17.90
2022-10-02T09:05:47.010Z,23.70
2022-10-02T09:06:46.980Z,22.90
2022-10-02T09:07:47.230Z,19.70
2022-10-02T09:08:47.420Z,16.40
2022-10-02T09:09:47.239Z,19.00
2022-10-02T09:10:46.620Z,21.40
2022-10-02T09:11:47.251Z,18.60
2022-10-02T09:12:46.636Z,18.90
2022-10-02T09:13:47.078Z,17.40
2022-10-02T09:14:46.619Z,21.10
2022-10-02T09:15:47.250Z,21.50
2022-10-02T09:16:46.702Z,18.60
2022-10-02T09:17:46.661Z,18.70
2022-10-02T09:18:46.583Z,19.50
2022-10-02T09:19:46.688Z,18.70
2022-10-02T09:20:46.659Z,21.70
2022-10-02T09:21:46.588Z,16.70
2022-10-02T09:22:46.584Z,16.20
2022-10-02T09:23:46.549Z,20.20
2022-10-02T09:24:46.543Z,16.10
2022-10-02T09:25:46.630Z,17.30
2022-10-02T09:26:46.547Z,19.60
2022-10-02T09:27:46.725Z,23.90
2022-10-02T09:28:46.777Z,19.70
2022-10-02T09:29:46.517Z,17.80
2022-10-02T09:30:46.561Z,18.90
2022-10-02T09:31:46.898Z,18.40
2022-10-02T09:32:46.955Z,18.30
2022-10-02T09:33:46.967Z,17.50
2022-10-02T09:34:47.006Z,16.70
2022-10-02T09:35:47.196Z,18.40
2022-10-02T09:36:46.565Z,17.50
2022-10-02T09:37:46.807Z,15.30
2022-10-02T09:38:46.816Z,13.40
2022-10-02T09:39:46.454Z,18.10
2022-10-02T09:40:47.416Z,21.30
2022-10-02T09:41:46.805Z,16.90
2022-10-02T09:42:46.815Z,15.90
2022-10-02T09:43:46.663Z,20.30
2022-10-02T09:44:47.234Z,17.30
2022-10-02T09:45:47.418Z,15.80
2022-10-02T09:46:46.625Z,18.10
2022-10-02T09:47:46.675Z,16.20
2022-10-02T09:48:46.435Z,20.20
2022-10-02T09:49:47.285Z,16.50
2022-10-02T09:50:47.426Z,18.80
2022-10-02T09:51:46.703Z,15.10
2022-10-02T09:52:46.336Z,16.90
2022-10-02T09:53:46.474Z,16.10
2022-10-02T09:54:46.504Z,15.10
2022-10-02T09:55:46.324Z,18.70
2022-10-02T09:56:46.354Z,16.60
2022-10-02T09:57:46.515Z,17.70
2022-10-02T09:58:46.313Z,15.60
2022-10-02T09:59:46.806Z,15.60
2022-10-02T10:00:46.333Z,17.00
2022-10-02T10:01:46.333Z,16.50
2022-10-02T10:02:46.378Z,17.50
2022-10-02T10:05:12.440Z,14.90
2022-10-02T10:06:12.451Z,15.30
2022-10-02T10:07:14.588Z,16.40
2022-10-02T10:08:12.610Z,16.80
2022-10-02T10:09:12.263Z,15.90
2022-10-02T10:10:12.219Z,15.70
2022-10-02T10:11:12.430Z,16.30
2022-10-02T10:12:12.849Z,15.20
2022-10-02T10:13:12.858Z,18.10
2022-10-02T10:14:12.200Z,17.40
2022-10-02T10:15:12.249Z,14.50
2022-10-02T10:16:12.525Z,16.50
2022-10-02T10:17:13.080Z,17.50
2022-10-02T10:18:12.730Z,13.60
2022-10-02T10:19:12.139Z,13.30
2022-10-02T10:20:13.144Z,15.40
2022-10-02T10:21:13.169Z,14.30
2022-10-02T10:22:12.300Z,17.10
2022-10-02T10:23:12.718Z,15.30
2022-10-02T10:24:12.579Z,17.00
2022-10-02T10:25:13.090Z,15.20
2022-10-02T10:26:12.123Z,18.10
2022-10-02T10:27:12.339Z,15.10
2022-10-02T10:28:12.604Z,19.00
2022-10-02T10:29:12.108Z,16.70
2022-10-02T10:30:12.127Z,20.60
2022-10-02T10:31:12.161Z,13.00
2022-10-02T10:32:12.167Z,13.30
2022-10-02T10:33:12.038Z,13.20
2022-10-02T10:34:12.037Z,13.00
2022-10-02T10:35:12.203Z,16.70
2022-10-02T10:36:12.058Z,15.60
2022-10-02T10:37:11.999Z,13.20
2022-10-02T10:38:11.997Z,15.40
2022-10-02T10:39:11.998Z,14.30
2022-10-02T10:40:12.078Z,16.50
2022-10-02T10:41:12.057Z,16.00
2022-10-02T10:42:12.231Z,14.90
2022-10-02T10:43:15.867Z,16.10
2022-10-02T10:44:12.245Z,14.80
2022-10-02T10:45:12.249Z,15.10
2022-10-02T10:46:12.328Z,16.70
2022-10-02T10:47:12.469Z,14.70
2022-10-02T10:48:12.481Z,13.40
2022-10-02T10:49:12.277Z,13.80
2022-10-02T10:50:12.498Z,18.60
2022-10-02T10:51:12.287Z,14.40
2022-10-02T10:52:11.896Z,12.30
2022-10-02T10:53:11.895Z,16.00
2022-10-02T10:54:12.106Z,14.70
2022-10-02T10:55:12.518Z,16.80
2022-10-02T10:56:12.316Z,16.90
2022-10-02T10:57:11.956Z,17.80
2022-10-02T10:58:11.927Z,12.70
2022-10-02T10:59:11.866Z,16.60
2022-10-02T11:00:11.976Z,14.10
2022-10-02T11:01:12.190Z,16.30
2022-10-02T11:02:12.043Z,15.00
2022-10-02T11:03:12.405Z,15.00
2022-10-02T11:04:11.875Z,19.50
2022-10-02T11:05:11.795Z,15.40
2022-10-02T11:06:12.737Z,17.70
2022-10-02T11:07:12.398Z,17.70
2022-10-02T11:08:12.403Z,18.60
2022-10-02T11:09:12.419Z,16.60
2022-10-02T11:10:12.598Z,18.00
2022-10-02T11:11:12.754Z,16.50
2022-10-02T11:12:12.016Z,17.70
2022-10-02T11:13:12.225Z,17.10
2022-10-02T11:14:11.824Z,15.20
2022-10-02T11:15:11.833Z,18.70
2022-10-02T11:16:11.776Z,17.10
2022-10-02T11:17:11.852Z,14.80
2022-10-02T11:18:11.863Z,14.30
2022-10-02T11:19:11.734Z,16.90
2022-10-02T11:20:11.914Z,14.00
2022-10-02T11:21:11.875Z,14.70
2022-10-02T11:22:11.913Z,14.90
2022-10-02T11:23:11.891Z,14.30
2022-10-02T11:24:12.134Z,17.20
2022-10-02T11:25:13.204Z,16.50
2022-10-02T11:26:11.731Z,15.00
2022-10-02T11:27:12.325Z,14.20
2022-10-02T11:28:12.384Z,13.00
2022-10-02T11:29:12.163Z,16.60
2022-10-02T11:30:12.343Z,9.60
2022-10-02T11:31:12.618Z,15.20
2022-10-02T11:32:11.641Z,12.70
2022-10-02T11:33:11.602Z,15.40
2022-10-02T11:34:11.773Z,14.50
2022-10-02T11:35:11.590Z,13.60
2022-10-02T11:36:11.582Z,12.80
2022-10-02T11:37:11.586Z,12.90
2022-10-02T11:38:11.572Z,18.20
2022-10-02T11:39:11.592Z,15.80
2022-10-02T11:40:11.591Z,13.40
2022-10-02T11:41:11.605Z,16.10
2022-10-02T11:42:11.610Z,14.40
2022-10-02T11:43:11.612Z,12.70
2022-10-02T11:44:11.621Z,10.80
2022-10-02T11:45:11.621Z,9.80
2022-10-02T11:46:11.701Z,10.30
2022-10-02T11:47:11.644Z,12.50
2022-10-02T11:48:11.575Z,14.80
2022-10-02T11:49:11.691Z,13.60
2022-10-02T11:50:11.530Z,14.00
2022-10-02T11:51:11.478Z,11.50
2022-10-02T11:52:11.468Z,10.70
2022-10-02T11:53:11.530Z,10.90
2022-10-02T11:54:11.686Z,11.00
2022-10-02T11:55:11.701Z,11.20
2022-10-02T11:56:11.701Z,12.60
2022-10-02T11:57:11.420Z,11.20
2022-10-02T11:58:11.931Z,11.40
2022-10-02T11:59:11.517Z,13.70
2022-10-02T12:00:11.400Z,10.20
2022-10-02T12:01:11.501Z,8.60
2022-10-02T12:02:15.665Z,9.50
2022-10-02T12:03:12.113Z,8.60
2022-10-02T12:04:11.959Z,9.40
2022-10-02T12:05:11.381Z,9.60
2022-10-02T12:06:11.418Z,8.80
2022-10-02T12:07:11.771Z,7.20
2022-10-02T12:08:11.991Z,10.50
2022-10-02T12:09:12.004Z,6.90
2022-10-02T12:10:12.005Z,10.20
2022-10-02T12:11:11.343Z,11.10
2022-10-02T12:12:12.024Z,8.20
2022-10-02T12:13:12.030Z,8.40
2022-10-02T12:14:11.618Z,7.60
2022-10-02T12:15:12.007Z,11.00
2022-10-02T12:16:11.609Z,9.70
2022-10-02T12:17:12.071Z,10.10
2022-10-02T12:18:11.289Z,7.40
2022-10-02T12:19:11.652Z,10.50
2022-10-02T12:20:11.453Z,6.90
2022-10-02T12:21:12.076Z,8.00
2022-10-02T12:22:11.278Z,9.10
2022-10-02T12:23:11.473Z,6.70
2022-10-02T12:24:11.325Z,10.20
2022-10-02T12:25:11.308Z,7.40
2022-10-02T12:26:11.236Z,11.40
2022-10-02T12:27:11.715Z,8.50
2022-10-02T12:28:11.483Z,8.70
2022-10-02T12:29:11.365Z,8.00
2022-10-02T12:30:11.438Z,6.70
2022-10-02T12:31:11.377Z,9.60
2022-10-02T12:32:11.659Z,8.60
2022-10-02T12:33:11.187Z,7.40
2022-10-02T12:34:11.188Z,6.90
2022-10-02T12:35:11.607Z,10.00
2022-10-02T12:36:11.429Z,8.50
2022-10-02T12:37:11.166Z,10.60
2022-10-02T12:38:11.187Z,10.10
2022-10-02T12:39:11.838Z,12.10
2022-10-02T12:40:11.859Z,9.20
2022-10-02T12:41:11.868Z,7.10
2022-10-02T12:42:11.956Z,8.90
2022-10-02T12:43:11.200Z,9.60
2022-10-02T12:44:12.087Z,10.10
2022-10-02T12:45:12.092Z,9.70
2022-10-02T12:46:11.601Z,9.60
2022-10-02T12:47:11.877Z,10.60
2022-10-02T12:48:11.226Z,6.70
2022-10-02T12:49:11.686Z,8.50
2022-10-02T12:50:11.096Z,9.10
2022-10-02T12:51:11.117Z,8.40
2022-10-02T12:52:11.058Z,7.00
2022-10-02T12:53:11.098Z,10.60
2022-10-02T12:54:11.066Z,11.70
2022-10-02T12:55:11.075Z,9.70
2022-10-02T12:56:11.076Z,7.10
2022-10-02T12:57:11.086Z,8.00